createdAt,value
2023-02-13T00:00:44.968Z,99.90
2023-02-13T00:04:46.809Z,99.90
2023-02-13T00:08:48.657Z,99.90
2023-02-13T00:12:50.403Z,99.90
2023-02-13T00:16:52.109Z,99.90
2023-02-13T00:21:06.255Z,99.90
2023-02-13T00:25:08.278Z,99.90
2023-02-13T00:29:19.864Z,99.90
2023-02-13T00:33:25.744Z,99.90
2023-02-13T00:37:27.436Z,99.90
2023-02-13T00:41:29.139Z,99.90
2023-02-13T00:45:30.828Z,99.90
2023-02-13T00:49:32.600Z,99.90
2023-02-13T00:53:34.738Z,99.90
2023-02-13T00:57:36.475Z,99.90
2023-02-13T01:01:38.140Z,99.90
2023-02-13T01:05:49.784Z,99.90
2023-02-13T01:09:51.651Z,99.90
2023-02-13T01:13:53.338Z,99.90
2023-02-13T01:17:57.356Z,99.90
2023-02-13T01:21:59.037Z,99.90
2023-02-13T01:26:01.059Z,99.90
2023-02-13T01:30:02.967Z,99.90
2023-02-13T01:34:04.771Z,99.90
2023-02-13T01:38:12.928Z,99.90
2023-02-13T01:42:21.977Z,99.90
2023-02-13T01:46:33.325Z,99.90
2023-02-13T01:50:40.674Z,99.90
2023-02-13T01:54:45.759Z,99.90
2023-02-13T01:58:49.073Z,99.90
2023-02-13T02:02:58.205Z,99.90
2023-02-13T02:07:08.941Z,99.90
2023-02-13T02:11:20.268Z,99.90
2023-02-13T02:15:22.744Z,99.90
2023-02-13T02:19:27.365Z,99.90
2023-02-13T02:23:48.283Z,99.90
2023-02-13T02:28:11.473Z,99.90
2023-02-13T02:32:22.894Z,99.90
2023-02-13T02:36:43.605Z,99.90
2023-02-13T02:40:45.468Z,99.90
2023-02-13T02:45:19.706Z,99.90
2023-02-13T02:49:45.750Z,99.90
2023-02-13T02:53:50.208Z,99.90
2023-02-13T02:58:15.294Z,99.90
2023-02-13T03:02:36.650Z,99.90
2023-02-13T03:06:46.309Z,99.90
2023-02-13T03:11:06.904Z,99.90
2023-02-13T03:15:09.038Z,99.90
2023-02-13T03:19:39.525Z,99.90
2023-02-13T03:24:01.510Z,99.90
2023-02-13T03:28:24.819Z,99.90
2023-02-13T03:32:31.566Z,99.90
2023-02-13T03:37:21.493Z,99.90
2023-02-13T03:41:32.741Z,99.90
2023-02-13T03:45:53.920Z,99.90
2023-02-13T03:50:16.272Z,99.90
2023-02-13T03:54:21.299Z,99.90
2023-02-13T03:58:55.197Z,99.90
2023-02-13T04:02:58.744Z,99.90
2023-02-13T04:07:02.578Z,99.90
2023-02-13T04:11:10.033Z,99.90
2023-02-13T04:15:16.935Z,99.90
2023-02-13T04:19:19.727Z,99.90
2023-02-13T04:23:21.616Z,99.90
2023-02-13T04:27:25.570Z,99.90
2023-02-13T04:31:27.343Z,99.90
2023-02-13T04:35:29.180Z,99.90
2023-02-13T04:39:30.818Z,99.90
2023-02-13T04:43:40.314Z,99.90
2023-02-13T04:47:42.404Z,99.90
2023-02-13T04:51:44.191Z,99.90
2023-02-13T04:55:46.037Z,99.90
2023-02-13T04:59:48.228Z,99.90
2023-02-13T05:03:50.086Z,99.90
2023-02-13T05:07:51.685Z,99.90
2023-02-13T05:11:53.710Z,99.90
2023-02-13T05:15:55.386Z,99.90
2023-02-13T05:19:57.113Z,99.90
2023-02-13T05:23:58.738Z,99.90
2023-02-13T05:28:00.379Z,99.90
2023-02-13T05:32:02.158Z,99.90
2023-02-13T05:36:03.882Z,99.90
2023-02-13T05:40:05.740Z,99.90
2023-02-13T05:44:07.395Z,99.90
2023-02-13T05:48:09.015Z,99.90
2023-02-13T05:52:10.674Z,99.90
2023-02-13T05:56:12.317Z,99.90
2023-02-13T06:00:14.317Z,99.90
2023-02-13T06:04:15.945Z,99.90
2023-02-13T06:08:17.592Z,99.90
2023-02-13T06:12:19.140Z,99.90
2023-02-13T06:16:20.805Z,99.90
2023-02-13T06:20:22.392Z,99.90
2023-02-13T06:24:23.990Z,99.90
2023-02-13T06:28:25.837Z,99.90
2023-02-13T06:32:27.433Z,99.90
2023-02-13T06:36:29.035Z,99.90
2023-02-13T06:40:30.666Z,99.90
2023-02-13T06:44:32.436Z,99.90
2023-02-13T06:48:34.519Z,99.90
2023-02-13T06:52:36.150Z,99.90
2023-02-13T06:56:37.722Z,99.90
2023-02-13T07:00:39.341Z,99.90
2023-02-13T07:04:40.956Z,99.90
2023-02-13T07:08:42.554Z,99.90
2023-02-13T07:12:45.780Z,99.90
2023-02-13T07:16:50.766Z,99.90
2023-02-13T07:20:52.353Z,99.90
2023-02-13T07:24:53.955Z,99.90
2023-02-13T07:29:09.358Z,99.90
2023-02-13T07:33:13.648Z,99.90
2023-02-13T07:37:15.535Z,99.90
2023-02-13T07:41:17.140Z,99.90
2023-02-13T07:45:18.830Z,99.90
2023-02-13T07:49:20.416Z,99.90
2023-02-13T07:53:22.632Z,99.90
2023-02-13T07:57:24.396Z,99.90
2023-02-13T08:01:26.801Z,99.90
2023-02-13T08:05:29.275Z,99.90
2023-02-13T08:09:49.451Z,99.90
2023-02-13T08:13:51.037Z,99.90
2023-02-13T08:17:52.720Z,99.90
2023-02-13T08:21:54.328Z,99.90
2023-02-13T08:25:59.038Z,99.90
2023-02-13T08:30:01.900Z,99.90
2023-02-13T08:34:03.670Z,99.90
2023-02-13T08:38:05.504Z,99.90
2023-02-13T08:42:07.237Z,99.90
2023-02-13T08:46:08.967Z,99.90
2023-02-13T08:50:10.913Z,99.90
2023-02-13T08:54:12.541Z,99.90
2023-02-13T08:58:14.150Z,99.90
2023-02-13T09:02:15.824Z,99.90
2023-02-13T09:06:17.558Z,99.90
2023-02-13T09:10:19.318Z,99.90
2023-02-13T09:14:20.878Z,99.90
2023-02-13T09:18:22.438Z,99.90
2023-02-13T09:22:24.090Z,99.90
2023-02-13T09:26:25.716Z,99.90
2023-02-13T09:30:28.175Z,99.90
2023-02-13T09:34:29.777Z,99.90
2023-02-13T09:38:31.441Z,99.90
2023-02-13T09:42:36.728Z,99.90
2023-02-13T09:46:39.726Z,99.90
2023-02-13T09:50:41.889Z,99.90
2023-02-13T09:54:43.548Z,99.90
2023-02-13T09:59:02.845Z,99.90
2023-02-13T10:03:07.364Z,99.90
2023-02-13T10:07:09.004Z,99.90
2023-02-13T10:11:10.598Z,99.90
2023-02-13T10:15:31.292Z,99.90
2023-02-13T10:19:40.326Z,99.90
2023-02-13T10:23:46.192Z,99.90
2023-02-13T10:27:55.603Z,99.90
2023-02-13T10:31:59.489Z,99.90
2023-02-13T10:36:03.033Z,99.90
2023-02-13T10:40:09.698Z,99.90
2023-02-13T10:44:14.388Z,99.90
2023-02-13T10:48:29.345Z,99.90
2023-02-13T10:52:37.092Z,99.90
2023-02-13T10:56:38.694Z,99.90
2023-02-13T11:00:46.428Z,99.90
2023-02-13T11:04:48.690Z,99.90
2023-02-13T11:08:50.249Z,99.90
2023-02-13T11:12:52.283Z,99.90
2023-02-13T11:16:58.522Z,99.90
2023-02-13T11:21:09.234Z,99.90
2023-02-13T11:25:37.001Z,99.90
2023-02-13T11:29:50.634Z,99.90
2023-02-13T11:33:52.424Z,99.90
2023-02-13T11:38:14.433Z,99.90
2023-02-13T11:42:17.017Z,99.90
2023-02-13T11:46:19.499Z,99.90
2023-02-13T11:50:21.372Z,99.90
2023-02-13T11:54:25.145Z,99.90
2023-02-13T11:58:28.525Z,99.90
2023-02-13T12:02:33.524Z,99.90
2023-02-13T12:06:39.859Z,99.90
2023-02-13T12:10:41.638Z,99.90
2023-02-13T12:14:44.802Z,99.90
2023-02-13T12:18:49.099Z,99.90
2023-02-13T12:23:09.541Z,99.90
2023-02-13T12:27:11.125Z,99.90
2023-02-13T12:31:19.048Z,99.70
2023-02-13T12:35:29.849Z,98.80
2023-02-13T12:39:34.124Z,97.80
2023-02-13T12:43:58.896Z,97.70
2023-02-13T12:48:19.370Z,97.60
2023-02-13T12:52:28.760Z,96.70
2023-02-13T12:56:31.650Z,97.00
2023-02-13T13:00:50.911Z,97.00
2023-02-13T13:04:58.607Z,96.70
2023-02-13T13:09:09.482Z,96.60
2023-02-13T13:13:31.803Z,95.40
2023-02-13T13:17:51.895Z,95.30
2023-02-13T13:22:10.578Z,94.70
2023-02-13T13:26:32.114Z,95.40
2023-02-13T13:30:36.013Z,95.20
2023-02-13T13:34:39.045Z,94.40
2023-02-13T13:38:43.537Z,93.70
2023-02-13T13:42:54.770Z,94.00
2023-02-13T13:47:11.647Z,93.60
2023-02-13T13:51:16.431Z,92.90
2023-02-13T13:55:36.713Z,93.20
2023-02-13T13:59:38.311Z,92.50
2023-02-13T14:03:40.807Z,91.80
2023-02-13T14:07:42.555Z,91.70
2023-02-13T14:11:46.948Z,91.90
2023-02-13T14:15:49.657Z,92.40
2023-02-13T14:19:52.608Z,92.30
2023-02-13T14:23:54.422Z,92.50
2023-02-13T14:27:57.561Z,91.90
2023-02-13T14:31:59.329Z,92.60
2023-02-13T14:36:08.716Z,92.70
2023-02-13T14:40:28.597Z,92.40
2023-02-13T14:44:33.234Z,91.80
2023-02-13T14:48:53.682Z,92.00
2023-02-13T14:52:57.344Z,91.90
2023-02-13T14:57:15.057Z,92.60
2023-02-13T15:01:18.761Z,92.10
2023-02-13T15:05:20.780Z,92.70
2023-02-13T15:09:27.685Z,91.50
2023-02-13T15:13:33.660Z,91.70
2023-02-13T15:17:38.671Z,91.90
2023-02-13T15:21:46.781Z,92.20
2023-02-13T15:25:51.325Z,92.80
2023-02-13T15:30:04.224Z,92.60
2023-02-13T15:34:20.117Z,93.00
2023-02-13T15:38:24.682Z,92.40
2023-02-13T15:42:26.345Z,92.30
2023-02-13T15:46:29.682Z,92.60
2023-02-13T15:50:33.292Z,92.70
2023-02-13T15:54:35.634Z,93.20
2023-02-13T15:58:37.553Z,93.00
2023-02-13T16:02:43.870Z,93.40
2023-02-13T16:06:46.527Z,93.80
2023-02-13T16:10:48.328Z,94.90
2023-02-13T16:14:53.685Z,94.90
2023-02-13T16:18:55.428Z,95.40
2023-02-13T16:23:07.071Z,96.00
2023-02-13T16:27:13.886Z,96.70
2023-02-13T16:31:16.414Z,97.30
2023-02-13T16:35:28.951Z,98.10
2023-02-13T16:39:31.902Z,98.70
2023-02-13T16:43:41.593Z,99.10
2023-02-13T16:47:43.225Z,99.50
2023-02-13T16:51:45.021Z,99.90
2023-02-13T16:55:57.357Z,99.90
2023-02-13T17:00:24.490Z,99.90
2023-02-13T17:04:27.171Z,99.90
2023-02-13T17:08:30.658Z,99.90
2023-02-13T17:12:38.795Z,99.90
2023-02-13T17:16:40.804Z,99.90
2023-02-13T17:20:43.518Z,99.90
2023-02-13T17:24:45.104Z,99.90
2023-02-13T17:28:46.707Z,99.90
2023-02-13T17:32:49.315Z,99.90
2023-02-13T17:36:50.900Z,99.90
2023-02-13T17:40:52.595Z,99.90
2023-02-13T17:44:55.042Z,99.90
2023-02-13T17:48:56.753Z,99.90
2023-02-13T17:53:01.139Z,99.90
2023-02-13T17:57:02.773Z,99.90
2023-02-13T18:01:04.474Z,99.90
2023-02-13T18:05:06.656Z,99.90
2023-02-13T18:09:08.295Z,99.90
2023-02-13T18:13:09.883Z,99.90
2023-02-13T18:17:11.581Z,99.90
2023-02-13T18:21:13.722Z,99.90
2023-02-13T18:25:15.321Z,99.90
2023-02-13T18:29:16.934Z,99.90
2023-02-13T18:33:21.603Z,99.90
2023-02-13T18:37:23.257Z,99.90
2023-02-13T18:41:24.844Z,99.90
2023-02-13T18:45:26.424Z,99.90
2023-02-13T18:49:28.156Z,99.90
2023-02-13T18:53:30.134Z,99.90
2023-02-13T18:57:31.735Z,99.90
2023-02-13T19:01:35.266Z,99.90
2023-02-13T19:05:45.925Z,99.90
2023-02-13T19:09:48.501Z,99.90
2023-02-13T19:14:00.504Z,99.90
2023-02-13T19:18:02.170Z,99.90
2023-02-13T19:22:04.247Z,99.90
2023-02-13T19:26:06.669Z,99.90
2023-02-13T19:30:09.492Z,99.90
2023-02-13T19:34:11.316Z,99.90
2023-02-13T19:38:12.958Z,99.90
2023-02-13T19:42:14.640Z,99.90
2023-02-13T19:46:17.103Z,99.90
2023-02-13T19:50:18.738Z,99.90
2023-02-13T19:54:20.385Z,99.90
2023-02-13T19:58:21.997Z,99.90
2023-02-13T20:02:23.622Z,99.90
2023-02-13T20:06:27.788Z,99.90
2023-02-13T20:10:29.537Z,99.90
2023-02-13T20:14:31.140Z,99.90
2023-02-13T20:18:34.134Z,99.90
2023-02-13T20:22:35.937Z,99.90
2023-02-13T20:26:37.848Z,99.90
2023-02-13T20:30:43.165Z,99.90
2023-02-13T20:34:59.067Z,99.90
2023-02-13T20:39:02.970Z,99.90
2023-02-13T20:43:04.618Z,99.90
2023-02-13T20:47:06.244Z,99.90
2023-02-13T20:51:08.793Z,99.90
2023-02-13T20:55:10.481Z,99.90
2023-02-13T20:59:12.418Z,99.90
2023-02-13T21:03:14.904Z,99.90
2023-02-13T21:07:16.560Z,99.90
2023-02-13T21:11:18.867Z,99.90
2023-02-13T21:15:20.520Z,99.90
2023-02-13T21:19:22.249Z,99.90
2023-02-13T21:23:23.916Z,99.90
2023-02-13T21:27:25.622Z,99.90
2023-02-13T21:31:31.689Z,99.90
2023-02-13T21:35:33.357Z,99.90
2023-02-13T21:39:36.236Z,99.90
2023-02-13T21:43:37.922Z,99.90
2023-02-13T21:47:39.593Z,99.90
2023-02-13T21:51:41.649Z,99.90
2023-02-13T21:55:43.252Z,99.90
2023-02-13T21:59:44.911Z,99.90
2023-02-13T22:03:46.863Z,99.90
2023-02-13T22:08:07.337Z,99.90
2023-02-13T22:12:08.977Z,99.90
2023-02-13T22:16:14.932Z,99.90
2023-02-13T22:20:16.672Z,99.90
2023-02-13T22:24:18.436Z,99.90
2023-02-13T22:28:20.088Z,99.90
2023-02-13T22:32:21.833Z,99.90
2023-02-13T22:36:23.643Z,99.90
2023-02-13T22:40:25.245Z,99.90
2023-02-13T22:44:27.358Z,99.90
2023-02-13T22:48:28.952Z,99.90
2023-02-13T22:52:30.506Z,99.90
2023-02-13T22:56:32.579Z,99.90
2023-02-13T23:00:34.223Z,99.90
2023-02-13T23:04:35.913Z,99.90
2023-02-13T23:08:38.258Z,99.90
2023-02-13T23:12:40.963Z,99.90
2023-02-13T23:17:02.006Z,99.90
2023-02-13T23:21:05.110Z,99.90
2023-02-13T23:25:06.914Z,99.90
2023-02-13T23:29:08.499Z,99.90
2023-02-13T23:33:10.155Z,99.90
2023-02-13T23:37:11.745Z,99.90
2023-02-13T23:41:13.330Z,99.90
2023-02-13T23:45:14.931Z,99.90
2023-02-13T23:49:16.555Z,99.90
2023-02-13T23:53:18.150Z,99.90
2023-02-13T23:57:19.775Z,99.90
